Time;durP1;ratioP1;P1;durP2;ratioP2;P2;SDS_P1;SDS_P2;PMS_P1;PMS_P2;Temp;Humidity;BMP_temperature;BMP_pressure;BME280_temperature;BME280_humidity;BME280_pressure;Samples;Min_cycle;Max_cycle;Signal;HPM_P1;HPM_P2
2022/12/23 00:00:06;;;;;;;51.75;18.63;;;;;;;;;;5031639;28;20029;-79
2022/12/23 00:02:32;;;;;;;42.58;16.00;;;;;;;;;;5042494;28;20085;-79
2022/12/23 00:04:58;;;;;;;46.17;16.20;;;;;;;;;;5041980;28;20143;-79
2022/12/23 00:07:24;;;;;;;45.92;17.70;;;;;;;;;;5041608;28;20025;-79
2022/12/23 00:09:50;;;;;;;46.72;15.93;;;;;;;;;;5041125;28;20224;-79
2022/12/23 00:15:07;;;;;;;61.95;18.20;;;;;;;;;;5026541;28;20024;-78
2022/12/23 00:17:33;;;;;;;74.05;19.17;;;;;;;;;;5040410;28;20077;-78
2022/12/23 00:19:59;;;;;;;62.33;20.40;;;;;;;;;;5040191;28;20054;-78
2022/12/23 00:25:11;;;;;;;86.70;19.15;;;;;;;;;;5038968;28;20036;-79
2022/12/23 00:27:38;;;;;;;65.88;19.25;;;;;;;;;;5039294;28;20029;-78
2022/12/23 00:30:04;;;;;;;72.55;19.38;;;;;;;;;;5039142;28;20029;-79
2022/12/23 00:32:30;;;;;;;97.47;22.25;;;;;;;;;;5038853;28;20037;-78
2022/12/23 00:34:56;;;;;;;77.53;19.95;;;;;;;;;;5039411;28;20029;-79
2022/12/23 00:37:23;;;;;;;84.50;21.95;;;;;;;;;;5037989;28;20053;-78
2022/12/23 00:42:53;;;;;;;88.70;23.60;;;;;;;;;;4976080;28;20086;-78
2022/12/23 00:45:19;;;;;;;85.55;21.63;;;;;;;;;;5025723;28;20116;-78
2022/12/23 00:50:32;;;;;;;118.47;23.77;;;;;;;;;;5036879;28;20032;-78
2022/12/23 00:52:58;;;;;;;144.32;25.90;;;;;;;;;;5036186;28;20026;-78
2022/12/23 00:55:25;;;;;;;177.07;28.65;;;;;;;;;;5036236;28;20045;-78
2022/12/23 00:57:51;;;;;;;263.17;28.77;;;;;;;;;;5036013;28;20033;-78
2022/12/23 01:00:17;;;;;;;233.40;29.73;;;;;;;;;;5035797;28;20033;-78
2022/12/23 01:05:36;;;;;;;211.57;27.90;;;;;;;;;;5035599;28;20163;-78
2022/12/23 01:08:11;;;;;;;100.45;23.75;;;;;;;;;;5035526;28;20021;-78
2022/12/23 01:10:38;;;;;;;131.13;24.70;;;;;;;;;;5036247;28;20108;-79
2022/12/23 01:13:04;;;;;;;173.13;28.15;;;;;;;;;;5036301;28;20083;-79
2022/12/23 01:15:31;;;;;;;92.10;23.00;;;;;;;;;;5036243;28;20032;-78
2022/12/23 01:17:57;;;;;;;105.00;25.70;;;;;;;;;;5035584;28;20025;-79
2022/12/23 01:20:24;;;;;;;96.93;24.83;;;;;;;;;;5036020;28;20030;-78
2022/12/23 01:22:50;;;;;;;96.72;23.77;;;;;;;;;;5036540;28;20032;-78
2022/12/23 01:25:16;;;;;;;97.15;24.35;;;;;;;;;;5036089;28;20096;-78
2022/12/23 01:27:42;;;;;;;93.88;23.88;;;;;;;;;;5035158;28;20033;-78
2022/12/23 01:30:09;;;;;;;67.78;21.00;;;;;;;;;;5034759;28;20025;-79
2022/12/23 01:32:35;;;;;;;55.90;19.25;;;;;;;;;;5034966;28;20025;-78
2022/12/23 01:35:01;;;;;;;70.32;18.80;;;;;;;;;;5034697;28;20352;-79
2022/12/23 01:37:27;;;;;;;68.47;22.70;;;;;;;;;;5034757;28;20025;-78
2022/12/23 01:39:53;;;;;;;97.60;23.23;;;;;;;;;;5034477;28;20089;-78
2022/12/23 01:45:04;;;;;;;86.82;23.33;;;;;;;;;;5014672;28;20037;-78
2022/12/23 01:47:30;;;;;;;79.35;23.08;;;;;;;;;;5014728;28;20026;-78
2022/12/23 01:50:03;;;;;;;135.30;24.85;;;;;;;;;;5018958;28;20022;-78
2022/12/23 01:52:30;;;;;;;87.93;21.02;;;;;;;;;;5035894;28;20042;-78
2022/12/23 01:54:56;;;;;;;74.65;23.05;;;;;;;;;;5029549;28;20053;-78
2022/12/23 01:57:23;;;;;;;74.28;20.27;;;;;;;;;;5034180;28;20029;-78
2022/12/23 02:05:21;;;;;;;130.07;24.10;;;;;;;;;;5027734;28;20088;-78
2022/12/23 02:10:49;;;;;;;111.10;22.33;;;;;;;;;;5019209;28;20452;-78
2022/12/23 02:13:18;;;;;;;183.00;24.15;;;;;;;;;;5036330;28;20396;-78
2022/12/23 02:18:50;;;;;;;108.50;22.02;;;;;;;;;;5034452;28;20122;-78
2022/12/23 02:21:19;;;;;;;132.48;23.15;;;;;;;;;;5034077;28;20029;-78
2022/12/23 02:24:00;;;;;;;111.32;22.75;;;;;;;;;;5034149;28;20061;-78
2022/12/23 02:26:52;;;;;;;127.57;22.30;;;;;;;;;;5036511;28;20060;-78
2022/12/23 02:29:37;;;;;;;162.07;24.38;;;;;;;;;;5042539;28;20397;-79
2022/12/23 02:32:09;;;;;;;159.30;25.10;;;;;;;;;;5027412;28;20030;-79
2022/12/23 02:34:35;;;;;;;97.88;21.75;;;;;;;;;;5045231;28;20036;-79
2022/12/23 02:37:07;;;;;;;124.13;22.85;;;;;;;;;;5044531;28;20025;-79
2022/12/23 02:39:37;;;;;;;168.10;26.38;;;;;;;;;;5038479;28;20527;-79
2022/12/23 02:42:08;;;;;;;82.93;20.50;;;;;;;;;;5041185;28;20033;-79
2022/12/23 02:44:39;;;;;;;129.77;22.02;;;;;;;;;;5043145;28;20029;-79
2022/12/23 02:47:09;;;;;;;159.02;24.55;;;;;;;;;;5042338;28;20029;-78
2022/12/23 02:49:35;;;;;;;;;;;;;;;;;;5042235;28;20087;-78
2022/12/23 02:52:04;;;;;;;91.30;21.10;;;;;;;;;;5041544;28;20342;-78
2022/12/23 02:54:33;;;;;;;174.20;23.80;;;;;;;;;;5040754;28;20491;-78
2022/12/23 02:57:00;;;;;;;372.63;29.75;;;;;;;;;;5040525;28;20175;-78
2022/12/23 02:59:29;;;;;;;155.57;22.58;;;;;;;;;;5031478;28;20033;-78
2022/12/23 03:01:55;;;;;;;298.55;28.55;;;;;;;;;;5040076;28;20033;-78
2022/12/23 03:04:21;;;;;;;287.83;28.48;;;;;;;;;;5039685;28;20021;-78
2022/12/23 03:06:49;;;;;;;242.35;26.50;;;;;;;;;;5039350;28;20049;-78
2022/12/23 03:09:22;;;;;;;336.58;27.58;;;;;;;;;;5039568;28;20036;-78
2022/12/23 03:12:05;;;;;;;326.10;29.25;;;;;;;;;;5039809;28;20029;-79
2022/12/23 03:14:40;;;;;;;221.35;26.05;;;;;;;;;;5038703;28;20345;-79
2022/12/23 03:17:25;;;;;;;91.95;21.60;;;;;;;;;;5039435;28;20041;-79
2022/12/23 03:19:59;;;;;;;76.60;19.10;;;;;;;;;;5039008;28;20052;-79
2022/12/23 03:22:32;;;;;;;165.27;21.50;;;;;;;;;;5038950;28;20017;-78
2022/12/23 03:25:01;;;;;;;103.97;20.73;;;;;;;;;;5038482;28;20060;-78
2022/12/23 03:27:39;;;;;;;83.75;19.02;;;;;;;;;;5038644;28;20072;-78
2022/12/23 03:30:10;;;;;;;136.40;22.05;;;;;;;;;;5038519;28;20029;-78
2022/12/23 03:32:38;;;;;;;86.30;20.25;;;;;;;;;;5038160;28;20029;-78
2022/12/23 03:35:06;;;;;;;71.30;17.33;;;;;;;;;;5037996;28;20067;-78
2022/12/23 03:37:33;;;;;;;127.72;19.80;;;;;;;;;;5037192;28;20037;-78
2022/12/23 03:40:11;;;;;;;90.70;18.17;;;;;;;;;;5036670;28;20041;-78
2022/12/23 03:42:39;;;;;;;90.80;16.73;;;;;;;;;;5034196;28;20026;-78
2022/12/23 03:45:11;;;;;;;70.13;16.08;;;;;;;;;;5017318;28;20026;-78
2022/12/23 03:47:44;;;;;;;121.78;18.27;;;;;;;;;;5017208;28;20030;-79
2022/12/23 03:50:11;;;;;;;84.88;17.20;;;;;;;;;;5032984;28;20025;-79
2022/12/23 03:52:48;;;;;;;116.38;18.10;;;;;;;;;;5036644;28;20021;-78
2022/12/23 03:55:18;;;;;;;121.18;18.85;;;;;;;;;;5036603;28;20060;-78
2022/12/23 03:57:46;;;;;;;80.05;17.65;;;;;;;;;;5036721;28;20029;-78
2022/12/23 04:00:12;;;;;;;115.97;18.17;;;;;;;;;;5036600;28;20030;-78
2022/12/23 04:02:47;;;;;;;160.25;17.50;;;;;;;;;;5036689;28;20081;-78
2022/12/23 04:05:20;;;;;;;77.38;16.75;;;;;;;;;;5036839;28;20140;-78
2022/12/23 04:07:49;;;;;;;149.07;17.85;;;;;;;;;;5036630;28;20026;-78
2022/12/23 04:10:15;;;;;;;74.60;15.93;;;;;;;;;;5036660;28;20080;-78
2022/12/23 04:12:42;;;;;;;227.23;20.00;;;;;;;;;;5036253;28;20028;-78
2022/12/23 04:15:08;;;;;;;141.88;16.92;;;;;;;;;;5036567;28;20420;-78
2022/12/23 04:17:34;;;;;;;232.02;18.48;;;;;;;;;;5031573;28;20443;-78
2022/12/23 04:20:00;;;;;;;365.05;25.20;;;;;;;;;;5016309;28;20434;-78
2022/12/23 04:22:26;;;;;;;329.65;23.60;;;;;;;;;;5020047;28;20061;-78
2022/12/23 04:24:52;;;;;;;318.63;23.20;;;;;;;;;;5025467;28;20024;-78
2022/12/23 04:27:18;;;;;;;188.95;19.00;;;;;;;;;;5032703;28;20029;-78
2022/12/23 04:29:44;;;;;;;235.57;15.82;;;;;;;;;;5040602;28;20095;-78
2022/12/23 04:32:10;;;;;;;164.80;13.63;;;;;;;;;;5040281;28;20021;-78
2022/12/23 04:34:36;;;;;;;150.90;13.70;;;;;;;;;;5039967;28;20033;-78
2022/12/23 04:37:02;;;;;;;175.60;15.27;;;;;;;;;;5039496;28;20075;-78
2022/12/23 04:39:28;;;;;;;150.43;11.73;;;;;;;;;;5038818;28;20116;-78
2022/12/23 04:41:54;;;;;;;290.92;19.42;;;;;;;;;;5039088;28;20049;-78
2022/12/23 04:44:20;;;;;;;63.35;8.23;;;;;;;;;;5038228;28;20036;-78
2022/12/23 04:46:46;;;;;;;88.57;9.52;;;;;;;;;;5038078;28;20033;-78
2022/12/23 04:49:12;;;;;;;58.10;6.80;;;;;;;;;;5037826;28;20033;-78
2022/12/23 04:51:38;;;;;;;63.85;7.38;;;;;;;;;;5038117;28;20032;-78
2022/12/23 04:54:04;;;;;;;18.60;5.60;;;;;;;;;;5037233;28;20026;-78
2022/12/23 04:56:30;;;;;;;23.25;6.97;;;;;;;;;;5037072;28;20042;-78
2022/12/23 04:58:56;;;;;;;17.33;5.90;;;;;;;;;;5025685;28;20041;-78
2022/12/23 05:01:22;;;;;;;16.35;5.85;;;;;;;;;;5017203;28;20026;-78
2022/12/23 05:03:48;;;;;;;20.35;6.03;;;;;;;;;;5016843;28;20030;-78
2022/12/23 05:06:14;;;;;;;14.98;5.35;;;;;;;;;;5016802;28;20104;-78
2022/12/23 05:08:40;;;;;;;30.05;6.93;;;;;;;;;;5016433;28;20084;-78
2022/12/23 05:11:06;;;;;;;18.77;6.07;;;;;;;;;;5016731;28;20037;-78
2022/12/23 05:13:32;;;;;;;26.80;7.97;;;;;;;;;;5023876;28;20530;-78
2022/12/23 05:15:58;;;;;;;27.50;6.60;;;;;;;;;;5036025;28;20464;-78
2022/12/23 05:18:24;;;;;;;33.08;7.72;;;;;;;;;;5036006;28;20025;-78
2022/12/23 05:20:50;;;;;;;33.55;7.05;;;;;;;;;;5035771;28;20112;-78
2022/12/23 05:23:16;;;;;;;58.60;8.85;;;;;;;;;;5035622;28;20033;-78
2022/12/23 05:25:42;;;;;;;54.08;9.32;;;;;;;;;;5026770;28;20142;-78
2022/12/23 05:28:08;;;;;;;26.95;7.55;;;;;;;;;;5016376;28;20057;-78
2022/12/23 05:30:34;;;;;;;27.17;7.15;;;;;;;;;;5016248;28;20469;-78
2022/12/23 05:33:00;;;;;;;17.67;5.95;;;;;;;;;;5026801;28;20033;-78
2022/12/23 05:35:26;;;;;;;22.67;6.72;;;;;;;;;;5035117;28;20380;-78
2022/12/23 05:37:52;;;;;;;18.30;6.60;;;;;;;;;;5035037;28;20029;-78
2022/12/23 05:40:19;;;;;;;18.15;7.03;;;;;;;;;;5035160;28;20045;-78
2022/12/23 05:42:45;;;;;;;16.58;6.25;;;;;;;;;;5034764;28;20033;-78
2022/12/23 05:45:11;;;;;;;20.65;6.72;;;;;;;;;;5034816;28;20025;-78
2022/12/23 05:47:37;;;;;;;14.45;6.03;;;;;;;;;;5034651;28;20031;-78
2022/12/23 05:50:03;;;;;;;18.15;5.50;;;;;;;;;;5034677;28;20037;-78
2022/12/23 05:52:29;;;;;;;21.42;6.40;;;;;;;;;;5034982;28;20022;-78
2022/12/23 05:54:55;;;;;;;14.63;5.78;;;;;;;;;;5034874;28;20455;-78
2022/12/23 05:57:21;;;;;;;20.70;6.47;;;;;;;;;;5035011;28;20472;-78
2022/12/23 05:59:47;;;;;;;20.38;6.53;;;;;;;;;;5034755;28;20080;-78
2022/12/23 06:02:13;;;;;;;19.48;6.10;;;;;;;;;;5033641;28;20466;-78
2022/12/23 06:04:39;;;;;;;18.25;6.22;;;;;;;;;;5034038;28;20432;-77
2022/12/23 06:07:05;;;;;;;26.50;6.57;;;;;;;;;;5033926;28;20457;-78
2022/12/23 06:09:31;;;;;;;21.88;5.90;;;;;;;;;;5033826;28;20036;-78
2022/12/23 06:11:57;;;;;;;20.95;6.00;;;;;;;;;;5033867;28;20456;-77
2022/12/23 06:14:23;;;;;;;19.88;6.82;;;;;;;;;;5033612;28;20078;-79
2022/12/23 06:16:50;;;;;;;24.05;7.32;;;;;;;;;;5034055;28;20033;-78
2022/12/23 06:19:17;;;;;;;19.33;6.82;;;;;;;;;;5029754;28;20041;-78
2022/12/23 06:21:45;;;;;;;20.45;6.60;;;;;;;;;;5032402;28;20028;-78
2022/12/23 06:24:11;;;;;;;28.13;8.02;;;;;;;;;;5034763;28;20025;-78
2022/12/23 06:26:37;;;;;;;30.05;8.05;;;;;;;;;;5034525;28;20113;-78
2022/12/23 06:29:03;;;;;;;29.30;7.85;;;;;;;;;;5025663;28;20058;-77
2022/12/23 06:31:29;;;;;;;33.47;9.13;;;;;;;;;;5027629;28;20022;-79
2022/12/23 06:33:55;;;;;;;28.83;9.25;;;;;;;;;;5034514;28;20384;-78
2022/12/23 06:36:21;;;;;;;33.30;9.98;;;;;;;;;;5034229;28;20472;-78
2022/12/23 06:38:47;;;;;;;37.95;10.20;;;;;;;;;;5034126;28;20060;-78
2022/12/23 06:41:13;;;;;;;26.70;8.05;;;;;;;;;;5034155;28;20030;-78
2022/12/23 06:43:39;;;;;;;36.75;8.57;;;;;;;;;;5033512;28;20546;-78
2022/12/23 06:46:13;;;;;;;34.15;8.35;;;;;;;;;;5033162;28;20053;-78
2022/12/23 06:48:39;;;;;;;39.05;8.05;;;;;;;;;;5034045;28;20052;-78
2022/12/23 06:51:05;;;;;;;27.60;7.57;;;;;;;;;;5033930;28;20050;-78
2022/12/23 06:53:31;;;;;;;29.38;7.40;;;;;;;;;;5034188;28;20036;-78
2022/12/23 06:56:00;;;;;;;34.08;8.30;;;;;;;;;;5033748;28;20395;-78
2022/12/23 06:58:27;;;;;;;25.63;7.28;;;;;;;;;;5033874;28;20036;-78
2022/12/23 07:00:53;;;;;;;29.27;7.18;;;;;;;;;;5033324;28;20034;-78
2022/12/23 07:03:19;;;;;;;23.45;7.10;;;;;;;;;;5033479;28;20087;-79
2022/12/23 07:05:48;;;;;;;23.35;6.15;;;;;;;;;;5033442;28;20061;-78
2022/12/23 07:08:14;;;;;;;20.98;5.75;;;;;;;;;;5033163;28;20018;-77
2022/12/23 07:10:40;;;;;;;18.80;5.60;;;;;;;;;;5032951;28;20420;-78
2022/12/23 07:13:06;;;;;;;18.33;5.80;;;;;;;;;;5033329;28;20530;-78
2022/12/23 07:15:32;;;;;;;15.93;5.30;;;;;;;;;;5035324;28;20101;-77
2022/12/23 07:17:58;;;;;;;22.05;6.05;;;;;;;;;;5036867;28;20033;-78
2022/12/23 07:20:24;;;;;;;21.10;5.55;;;;;;;;;;5036545;28;20122;-78
2022/12/23 07:22:53;;;;;;;21.92;5.55;;;;;;;;;;5037012;28;20079;-77
2022/12/23 07:25:19;;;;;;;21.00;5.75;;;;;;;;;;5036839;28;20036;-78
2022/12/23 07:27:45;;;;;;;25.25;6.50;;;;;;;;;;5036577;28;20029;-78
2022/12/23 07:30:13;;;;;;;17.65;5.55;;;;;;;;;;5036924;28;20413;-78
2022/12/23 07:32:39;;;;;;;19.30;6.38;;;;;;;;;;5036534;28;20380;-78
2022/12/23 07:35:05;;;;;;;15.60;4.97;;;;;;;;;;5036704;28;20457;-78
2022/12/23 07:37:31;;;;;;;18.25;5.93;;;;;;;;;;5036412;28;20017;-78
2022/12/23 07:39:57;;;;;;;18.60;5.72;;;;;;;;;;5036196;28;20443;-77
2022/12/23 07:42:23;;;;;;;20.42;5.78;;;;;;;;;;5036095;28;20025;-77
2022/12/23 07:44:49;;;;;;;17.88;6.95;;;;;;;;;;5036245;28;20052;-77
2022/12/23 07:47:15;;;;;;;17.50;7.15;;;;;;;;;;5036329;28;20021;-78
2022/12/23 07:49:41;;;;;;;13.60;5.70;;;;;;;;;;5036398;28;20029;-78
2022/12/23 07:52:07;;;;;;;25.40;6.88;;;;;;;;;;5036212;28;20416;-78
2022/12/23 07:54:33;;;;;;;21.05;6.70;;;;;;;;;;5036288;28;20026;-78
2022/12/23 07:56:59;;;;;;;25.75;6.85;;;;;;;;;;5035822;28;20492;-78
2022/12/23 07:59:26;;;;;;;20.70;6.90;;;;;;;;;;5035874;28;20033;-78
2022/12/23 08:01:52;;;;;;;15.50;6.20;;;;;;;;;;5019702;28;20030;-78
2022/12/23 08:04:18;;;;;;;19.60;6.55;;;;;;;;;;5016476;28;20037;-77
2022/12/23 08:06:44;;;;;;;18.95;6.50;;;;;;;;;;5016357;28;20026;-77
2022/12/23 08:09:10;;;;;;;22.40;7.20;;;;;;;;;;5016276;28;20040;-77
2022/12/23 08:11:36;;;;;;;22.60;7.18;;;;;;;;;;5017273;28;20026;-78
2022/12/23 08:14:02;;;;;;;21.35;6.35;;;;;;;;;;5032555;28;20033;-78
2022/12/23 08:16:28;;;;;;;27.85;7.97;;;;;;;;;;5035587;28;21789;-78
2022/12/23 08:18:54;;;;;;;24.40;8.00;;;;;;;;;;5035657;28;20026;-77
2022/12/23 08:21:19;;;;;;;27.38;9.07;;;;;;;;;;5036072;28;20072;-77
2022/12/23 08:23:47;;;;;;;26.60;8.48;;;;;;;;;;5035402;28;20407;-78
2022/12/23 08:26:14;;;;;;;23.90;7.65;;;;;;;;;;5036531;28;20063;-78
2022/12/23 08:28:47;;;;;;;17.10;5.90;;;;;;;;;;5037064;28;20032;-79
2022/12/23 08:31:15;;;;;;;19.88;6.50;;;;;;;;;;5037671;28;20021;-79
2022/12/23 08:33:42;;;;;;;20.80;5.88;;;;;;;;;;5037053;28;20022;-78
2022/12/23 08:36:09;;;;;;;18.38;6.35;;;;;;;;;;5030373;28;20105;-78
2022/12/23 08:38:36;;;;;;;15.05;5.50;;;;;;;;;;5016871;28;20028;-78
2022/12/23 08:41:02;;;;;;;17.52;5.88;;;;;;;;;;5024647;28;20083;-78
2022/12/23 08:43:28;;;;;;;15.45;5.07;;;;;;;;;;5022745;28;20029;-79
2022/12/23 08:45:54;;;;;;;18.13;5.35;;;;;;;;;;5037446;28;20030;-78
2022/12/23 08:48:20;;;;;;;21.90;5.22;;;;;;;;;;5037780;28;20096;-78
2022/12/23 08:50:46;;;;;;;15.00;5.60;;;;;;;;;;5036242;28;20064;-78
2022/12/23 08:53:13;;;;;;;18.77;5.50;;;;;;;;;;5028558;28;20089;-78
2022/12/23 08:55:40;;;;;;;16.15;5.68;;;;;;;;;;5015439;28;20085;-78
2022/12/23 08:58:07;;;;;;;13.15;4.85;;;;;;;;;;5007064;28;20034;-78
2022/12/23 09:00:33;;;;;;;14.55;5.50;;;;;;;;;;5018026;28;20065;-78
2022/12/23 09:02:59;;;;;;;20.70;6.47;;;;;;;;;;5014314;28;20022;-78
2022/12/23 09:05:25;;;;;;;18.90;6.07;;;;;;;;;;4995254;28;20109;-79
2022/12/23 09:07:51;;;;;;;18.10;5.68;;;;;;;;;;4996164;28;20438;-77
2022/12/23 09:10:17;;;;;;;20.02;7.15;;;;;;;;;;4998256;28;20039;-78
2022/12/23 09:12:43;;;;;;;20.60;6.25;;;;;;;;;;4995446;28;20382;-78
2022/12/23 09:15:09;;;;;;;19.13;6.18;;;;;;;;;;4995188;28;20031;-79
2022/12/23 09:17:37;;;;;;;20.38;6.22;;;;;;;;;;4994824;28;20030;-79
2022/12/23 09:20:03;;;;;;;19.67;5.82;;;;;;;;;;4995640;28;20497;-79
2022/12/23 09:22:31;;;;;;;17.83;5.90;;;;;;;;;;4995080;28;20039;-79
2022/12/23 09:24:57;;;;;;;19.40;6.07;;;;;;;;;;5000786;28;20162;-78
2022/12/23 09:27:23;;;;;;;17.73;5.93;;;;;;;;;;4994382;28;20027;-78
2022/12/23 09:29:49;;;;;;;15.07;5.05;;;;;;;;;;4994214;28;20022;-78
2022/12/23 09:32:15;;;;;;;15.90;5.18;;;;;;;;;;4994457;28;20490;-78
2022/12/23 09:34:42;;;;;;;16.73;5.90;;;;;;;;;;4994036;28;20109;-78
2022/12/23 09:37:07;;;;;;;23.45;7.60;;;;;;;;;;4999785;28;20026;-78
2022/12/23 09:39:33;;;;;;;21.65;7.60;;;;;;;;;;5012950;28;20096;-78
2022/12/23 09:42:26;;;;;;;22.65;7.63;;;;;;;;;;5013851;28;20480;-78
2022/12/23 09:44:59;;;;;;;18.98;7.00;;;;;;;;;;4991287;28;20117;-78
2022/12/23 09:47:26;;;;;;;18.13;6.55;;;;;;;;;;5014045;28;20061;-78
2022/12/23 09:49:58;;;;;;;18.15;6.68;;;;;;;;;;5014048;28;20044;-78
2022/12/23 09:52:30;;;;;;;21.30;6.72;;;;;;;;;;5014136;28;20037;-78
2022/12/23 09:54:56;;;;;;;21.98;7.03;;;;;;;;;;5014323;28;20543;-78
2022/12/23 09:57:22;;;;;;;17.42;6.07;;;;;;;;;;5033868;28;20400;-78
2022/12/23 10:00:14;;;;;;;20.98;6.75;;;;;;;;;;5033826;28;20044;-78
2022/12/23 10:02:46;;;;;;;24.25;6.88;;;;;;;;;;5030584;28;20121;-79
2022/12/23 10:05:31;;;;;;;20.10;7.25;;;;;;;;;;5038943;28;20032;-78
2022/12/23 10:08:08;;;;;;;21.35;7.22;;;;;;;;;;5036352;28;20033;-79
2022/12/23 10:10:40;;;;;;;25.58;6.88;;;;;;;;;;5033847;28;20104;-79
2022/12/23 10:13:11;;;;;;;23.02;6.80;;;;;;;;;;5033787;28;20022;-79
2022/12/23 10:15:40;;;;;;;20.67;6.57;;;;;;;;;;5033587;28;20033;-79
2022/12/23 10:18:18;;;;;;;21.42;7.20;;;;;;;;;;5033680;28;20026;-79
2022/12/23 10:20:48;;;;;;;19.90;7.38;;;;;;;;;;5033591;28;20045;-78
2022/12/23 10:23:17;;;;;;;21.88;7.80;;;;;;;;;;5033721;28;20030;-79
2022/12/23 10:25:50;;;;;;;23.98;7.85;;;;;;;;;;5033645;28;20100;-79
2022/12/23 10:28:16;;;;;;;22.55;9.63;;;;;;;;;;5034023;28;20112;-79
2022/12/23 10:30:45;;;;;;;20.20;8.85;;;;;;;;;;5033715;28;20464;-79
2022/12/23 10:33:22;;;;;;;20.15;7.38;;;;;;;;;;5033405;28;20025;-78
2022/12/23 10:35:48;;;;;;;18.58;7.57;;;;;;;;;;5034140;28;20081;-78
2022/12/23 10:38:21;;;;;;;18.42;6.82;;;;;;;;;;5037560;28;20060;-78
2022/12/23 10:40:53;;;;;;;18.70;7.90;;;;;;;;;;5033407;28;20057;-78
2022/12/23 10:43:26;;;;;;;16.27;7.00;;;;;;;;;;5038493;28;20033;-78
2022/12/23 10:45:52;;;;;;;16.98;6.60;;;;;;;;;;5035232;28;20025;-78
2022/12/23 10:48:18;;;;;;;17.63;6.28;;;;;;;;;;5033662;28;20029;-78
2022/12/23 10:50:51;;;;;;;14.15;6.10;;;;;;;;;;5042628;28;20032;-78
2022/12/23 10:53:26;;;;;;;15.32;5.57;;;;;;;;;;5037089;28;20101;-78
2022/12/23 10:55:52;;;;;;;14.18;6.47;;;;;;;;;;5036756;28;20046;-78
2022/12/23 10:58:19;;;;;;;14.85;5.43;;;;;;;;;;5019230;28;20032;-78
2022/12/23 11:00:48;;;;;;;11.38;4.95;;;;;;;;;;5036864;28;20036;-78
2022/12/23 11:03:46;;;;;;;11.80;5.20;;;;;;;;;;5037466;28;20021;-79
2022/12/23 11:06:12;;;;;;;14.93;5.78;;;;;;;;;;4993617;28;20040;-78
2022/12/23 11:08:39;;;;;;;15.45;5.72;;;;;;;;;;5036940;28;20354;-78
2022/12/23 11:11:06;;;;;;;12.63;6.53;;;;;;;;;;5036765;28;20108;-78
2022/12/23 11:13:33;;;;;;;15.45;7.07;;;;;;;;;;5037087;28;20029;-78
2022/12/23 11:16:31;;;;;;;13.55;6.32;;;;;;;;;;5037215;28;20021;-78
2022/12/23 11:19:02;;;;;;;13.43;5.65;;;;;;;;;;4993010;28;20353;-79
2022/12/23 11:21:28;;;;;;;;;;;;;;;;;;5037125;28;20030;-78
2022/12/23 11:24:06;;;;;;;10.60;6.03;;;;;;;;;;5036604;28;19905;-78
2022/12/23 11:26:32;;;;;;;9.38;5.28;;;;;;;;;;5036383;28;20029;-78
2022/12/23 11:29:01;;;;;;;16.35;6.28;;;;;;;;;;5027034;28;20030;-78
2022/12/23 11:31:31;;;;;;;14.85;5.72;;;;;;;;;;5017317;28;20409;-78
2022/12/23 11:33:59;;;;;;;11.50;5.93;;;;;;;;;;5016856;28;20014;-78
2022/12/23 11:36:26;;;;;;;15.45;6.88;;;;;;;;;;5016654;28;20113;-78
2022/12/23 11:38:58;;;;;;;14.90;5.75;;;;;;;;;;5016812;28;20029;-78
2022/12/23 11:41:28;;;;;;;12.70;6.35;;;;;;;;;;5022917;28;20025;-78
2022/12/23 11:44:00;;;;;;;15.63;6.75;;;;;;;;;;5041399;28;20368;-78
2022/12/23 11:46:27;;;;;;;15.35;7.25;;;;;;;;;;5040549;28;20031;-78
2022/12/23 11:49:08;;;;;;;16.30;6.72;;;;;;;;;;5018806;28;20053;-78
2022/12/23 11:51:34;;;;;;;15.30;7.57;;;;;;;;;;5038049;28;20171;-78
2022/12/23 11:54:01;;;;;;;16.17;7.53;;;;;;;;;;5036956;28;20057;-77
2022/12/23 11:56:28;;;;;;;14.63;6.25;;;;;;;;;;5022935;28;20058;-78
2022/12/23 11:59:00;;;;;;;16.83;7.25;;;;;;;;;;5017814;28;20029;-78
2022/12/23 12:01:27;;;;;;;18.73;6.28;;;;;;;;;;5020305;28;20054;-79
2022/12/23 12:03:55;;;;;;;17.88;5.88;;;;;;;;;;5020527;28;20049;-78
2022/12/23 12:06:21;;;;;;;15.25;7.07;;;;;;;;;;5028086;28;20022;-78
2022/12/23 12:08:50;;;;;;;14.10;5.90;;;;;;;;;;5039389;28;20108;-78
2022/12/23 12:11:37;;;;;;;18.10;6.18;;;;;;;;;;5039922;28;20041;-78
2022/12/23 12:14:05;;;;;;;12.98;5.13;;;;;;;;;;5039224;28;20041;-79
2022/12/23 12:16:37;;;;;;;14.25;5.75;;;;;;;;;;5038767;28;20060;-78
2022/12/23 12:19:12;;;;;;;14.63;5.60;;;;;;;;;;5037849;28;20037;-78
2022/12/23 12:21:38;;;;;;;14.25;6.35;;;;;;;;;;5036893;28;20075;-78
2022/12/23 12:24:06;;;;;;;14.20;6.85;;;;;;;;;;5035678;28;20053;-78
2022/12/23 12:26:34;;;;;;;20.98;6.85;;;;;;;;;;5035654;28;20031;-78
2022/12/23 12:29:06;;;;;;;15.20;6.25;;;;;;;;;;5039579;28;20025;-78
2022/12/23 12:31:34;;;;;;;21.00;6.97;;;;;;;;;;5035405;28;20026;-78
2022/12/23 12:34:09;;;;;;;13.00;6.38;;;;;;;;;;5037292;28;20029;-78
2022/12/23 12:36:35;;;;;;;17.75;7.45;;;;;;;;;;5037224;28;20391;-78
2022/12/23 12:39:01;;;;;;;17.90;7.90;;;;;;;;;;5035178;28;20091;-78
2022/12/23 12:41:38;;;;;;;18.60;7.20;;;;;;;;;;5035131;28;20519;-78
2022/12/23 12:44:13;;;;;;;19.90;7.82;;;;;;;;;;5035187;28;20061;-78
2022/12/23 12:46:42;;;;;;;21.20;7.80;;;;;;;;;;5036144;28;20036;-78
2022/12/23 12:49:14;;;;;;;20.50;8.03;;;;;;;;;;5037875;28;20087;-78
2022/12/23 12:51:46;;;;;;;15.77;6.72;;;;;;;;;;5037488;28;20269;-78
2022/12/23 12:54:18;;;;;;;18.83;7.88;;;;;;;;;;5035086;28;20448;-78
2022/12/23 12:56:48;;;;;;;16.48;7.10;;;;;;;;;;5038397;28;20069;-78
2022/12/23 12:59:15;;;;;;;17.17;7.97;;;;;;;;;;5035134;28;20380;-78
2022/12/23 13:02:04;;;;;;;15.65;8.07;;;;;;;;;;5035207;28;20026;-78
2022/12/23 13:04:36;;;;;;;14.57;6.75;;;;;;;;;;4998598;28;20044;-78
2022/12/23 13:07:02;;;;;;;11.02;5.88;;;;;;;;;;5034516;28;20017;-78
2022/12/23 13:09:28;;;;;;;11.60;5.43;;;;;;;;;;5033979;28;20476;-78
2022/12/23 13:12:13;;;;;;;14.40;6.78;;;;;;;;;;5037500;28;20021;-78
2022/12/23 13:14:54;;;;;;;18.05;7.05;;;;;;;;;;5015993;28;20057;-78
2022/12/23 13:17:24;;;;;;;13.40;6.00;;;;;;;;;;5036315;28;20033;-78
2022/12/23 13:19:59;;;;;;;13.52;6.20;;;;;;;;;;5035834;28;20033;-78
2022/12/23 13:22:28;;;;;;;15.55;6.20;;;;;;;;;;5034990;28;20480;-78
2022/12/23 13:25:05;;;;;;;13.27;4.88;;;;;;;;;;5034857;28;20021;-78
2022/12/23 13:27:32;;;;;;;10.20;4.63;;;;;;;;;;5035257;28;20032;-78
2022/12/23 13:30:02;;;;;;;15.13;5.85;;;;;;;;;;5036970;28;20029;-78
2022/12/23 13:32:28;;;;;;;13.27;5.33;;;;;;;;;;5036281;28;20033;-78
2022/12/23 13:35:03;;;;;;;12.90;5.00;;;;;;;;;;5034978;28;20164;-78
2022/12/23 13:37:39;;;;;;;13.68;5.35;;;;;;;;;;5034864;28;20025;-78
2022/12/23 13:40:16;;;;;;;13.73;5.13;;;;;;;;;;5037421;28;20029;-78
2022/12/23 13:42:53;;;;;;;11.85;4.63;;;;;;;;;;5037636;28;20046;-78
2022/12/23 13:45:21;;;;;;;8.80;3.97;;;;;;;;;;5037181;28;20021;-79
2022/12/23 13:48:05;;;;;;;10.07;5.30;;;;;;;;;;5036089;28;20571;-79
2022/12/23 13:50:51;;;;;;;14.00;6.00;;;;;;;;;;5036568;28;20025;-79
2022/12/23 13:53:20;;;;;;;12.30;4.68;;;;;;;;;;5026334;28;20093;-78
2022/12/23 13:56:00;;;;;;;9.88;4.03;;;;;;;;;;5038780;28;20046;-78
2022/12/23 13:58:29;;;;;;;11.90;4.35;;;;;;;;;;5038313;28;20056;-78
2022/12/23 14:01:19;;;;;;;13.70;4.85;;;;;;;;;;5038956;28;20445;-78
2022/12/23 14:03:47;;;;;;;14.98;6.38;;;;;;;;;;4999583;28;20496;-78
2022/12/23 14:06:25;;;;;;;11.45;5.82;;;;;;;;;;5038962;28;20028;-78
2022/12/23 14:08:52;;;;;;;11.90;5.10;;;;;;;;;;5037914;28;20025;-78
2022/12/23 14:11:25;;;;;;;11.23;5.38;;;;;;;;;;5038087;28;20038;-78
2022/12/23 14:13:51;;;;;;;12.15;4.28;;;;;;;;;;5037925;28;20110;-78
2022/12/23 14:16:20;;;;;;;12.77;5.53;;;;;;;;;;5039897;28;20029;-79
2022/12/23 14:18:58;;;;;;;15.25;6.78;;;;;;;;;;5039255;28;20032;-78
2022/12/23 14:21:27;;;;;;;10.00;4.60;;;;;;;;;;5038796;28;20515;-79
2022/12/23 14:23:56;;;;;;;17.05;5.95;;;;;;;;;;5038123;28;20440;-79
2022/12/23 14:26:25;;;;;;;12.73;5.50;;;;;;;;;;5041036;28;20037;-79
2022/12/23 14:29:11;;;;;;;9.23;4.70;;;;;;;;;;5032932;28;20084;-79
2022/12/23 14:31:42;;;;;;;16.70;6.35;;;;;;;;;;5005964;28;20370;-79
2022/12/23 14:34:17;;;;;;;10.50;4.70;;;;;;;;;;5019213;28;20026;-78
2022/12/23 14:37:01;;;;;;;11.75;4.93;;;;;;;;;;5037590;28;20025;-79
2022/12/23 14:39:32;;;;;;;10.75;4.90;;;;;;;;;;5031916;28;20061;-79
2022/12/23 14:41:58;;;;;;;11.32;5.57;;;;;;;;;;5018693;28;20030;-79
2022/12/23 14:44:27;;;;;;;11.85;5.28;;;;;;;;;;5017541;28;20018;-78
2022/12/23 14:46:54;;;;;;;10.93;5.35;;;;;;;;;;5021839;28;20080;-78
2022/12/23 14:49:21;;;;;;;10.10;4.28;;;;;;;;;;5037571;28;20040;-79
2022/12/23 14:51:49;;;;;;;12.38;5.50;;;;;;;;;;5037247;28;20025;-79
2022/12/23 14:54:15;;;;;;;11.52;5.50;;;;;;;;;;5026913;28;20029;-79
2022/12/23 14:57:05;;;;;;;11.80;5.00;;;;;;;;;;5017436;28;20048;-78
2022/12/23 14:59:36;;;;;;;10.85;4.78;;;;;;;;;;5031567;28;20044;-78
2022/12/23 15:02:09;;;;;;;12.35;5.03;;;;;;;;;;5037165;28;20060;-78
2022/12/23 15:04:44;;;;;;;9.40;4.82;;;;;;;;;;5037301;28;20036;-78